createdAt,value
2019-04-23T00:04:01.099Z,47.77
2019-04-23T00:06:32.285Z,47.95
2019-04-23T00:09:21.191Z,47.94
2019-04-23T00:14:15.152Z,47.56
2019-04-23T00:16:44.045Z,47.60
2019-04-23T00:19:16.856Z,47.42
2019-04-23T00:21:57.338Z,47.70
2019-04-23T00:27:31.984Z,47.29
2019-04-23T00:29:57.619Z,47.75
2019-04-23T00:37:35.433Z,48.38
2019-04-23T00:40:02.974Z,48.82
2019-04-23T00:42:44.702Z,49.14
2019-04-23T00:45:08.304Z,48.90
2019-04-23T00:47:48.306Z,48.95
2019-04-23T00:50:38.513Z,49.25
2019-04-23T00:52:50.281Z,49.25
2019-04-23T00:55:26.170Z,49.39
2019-04-23T00:57:57.845Z,49.79
2019-04-23T01:00:33.693Z,50.07
2019-04-23T01:05:35.601Z,49.62
2019-04-23T01:08:08.318Z,49.81
2019-04-23T01:11:09.607Z,49.97
2019-04-23T01:16:05.413Z,50.12
2019-04-23T01:21:03.428Z,50.44
2019-04-23T01:23:58.897Z,50.48
2019-04-23T01:26:58.263Z,50.66
2019-04-23T01:29:30.520Z,50.73
2019-04-23T01:32:02.810Z,50.47
2019-04-23T01:34:31.290Z,50.45
2019-04-23T01:37:00.787Z,50.65
2019-04-23T01:39:27.791Z,50.62
2019-04-23T01:42:11.841Z,51.00
2019-04-23T01:44:42.076Z,51.33
2019-04-23T01:47:17.314Z,51.55
2019-04-23T01:49:53.943Z,51.61
2019-04-23T01:52:17.930Z,51.52
2019-04-23T01:54:52.853Z,51.96
2019-04-23T01:57:28.928Z,52.12
2019-04-23T01:59:58.445Z,52.21
2019-04-23T02:02:29.820Z,52.50
2019-04-23T02:05:01.375Z,52.07
2019-04-23T02:07:39.936Z,52.20
2019-04-23T02:10:17.811Z,52.02
2019-04-23T02:12:42.261Z,52.20
2019-04-23T02:15:12.226Z,52.16
2019-04-23T02:17:47.442Z,52.34
2019-04-23T02:20:24.191Z,52.41
2019-04-23T02:25:39.675Z,52.42
2019-04-23T02:28:04.814Z,52.70
2019-04-23T02:30:58.223Z,52.44
2019-04-23T02:38:18.468Z,52.76
2019-04-23T02:50:54.052Z,53.20
2019-04-23T02:53:44.343Z,53.29
2019-04-23T02:56:30.912Z,53.51
2019-04-23T02:58:49.045Z,53.50
2019-04-23T03:03:58.035Z,53.63
2019-04-23T03:06:14.212Z,53.55
2019-04-23T03:08:46.638Z,53.45
2019-04-23T03:14:03.639Z,53.83
2019-04-23T03:17:47.275Z,53.80
2019-04-23T03:19:24.187Z,53.96
2019-04-23T03:24:54.990Z,53.93
2019-04-23T03:45:16.713Z,54.65
2019-04-23T03:47:37.301Z,55.00
2019-04-23T03:52:51.057Z,55.16
2019-04-23T03:55:28.069Z,55.28
2019-04-23T03:57:47.945Z,55.44
2019-04-23T04:03:10.786Z,55.70
2019-04-23T04:05:48.270Z,55.75
2019-04-23T04:08:07.957Z,55.94
2019-04-23T04:10:41.629Z,56.12
2019-04-23T04:13:08.704Z,55.91
2019-04-23T04:23:22.725Z,56.87
2019-04-23T04:36:10.717Z,57.04
2019-04-23T04:43:45.248Z,56.45
2019-04-23T04:48:48.771Z,54.30
2019-04-23T04:51:19.442Z,53.44
2019-04-23T05:01:24.843Z,49.83
2019-04-23T05:03:45.823Z,49.47
2019-04-23T05:06:44.570Z,49.42
2019-04-23T05:09:00.682Z,49.19
2019-04-23T05:11:46.095Z,49.37
2019-04-23T05:16:33.470Z,48.66
2019-04-23T05:21:54.454Z,47.27
2019-04-23T05:24:21.464Z,47.25
2019-04-23T05:26:51.774Z,46.99
2019-04-23T05:29:20.058Z,46.75
2019-04-23T05:31:54.893Z,46.27
2019-04-23T05:34:26.319Z,45.90
2019-04-23T05:39:38.167Z,45.69
2019-04-23T05:42:10.753Z,45.24
2019-04-23T05:44:44.824Z,45.91
2019-04-23T05:47:25.464Z,44.78
2019-04-23T05:52:24.482Z,44.83
2019-04-23T05:54:56.238Z,44.37
2019-04-23T05:57:20.557Z,44.06
2019-04-23T05:59:54.878Z,44.22
2019-04-23T06:02:33.779Z,43.15
2019-04-23T06:05:03.791Z,43.66
2019-04-23T06:07:39.306Z,43.85
2019-04-23T06:10:14.562Z,43.92
2019-04-23T06:12:36.872Z,43.46
2019-04-23T06:15:13.404Z,43.60
2019-04-23T06:17:46.629Z,43.14
2019-04-23T06:20:15.400Z,41.52
2019-04-23T06:22:51.027Z,43.19
2019-04-23T06:25:39.933Z,43.02
2019-04-23T06:27:59.271Z,42.15
2019-04-23T06:30:38.738Z,42.83
2019-04-23T06:32:59.648Z,42.08
2019-04-23T06:35:43.800Z,42.96
2019-04-23T06:40:43.594Z,41.29
2019-04-23T06:43:21.489Z,40.79
2019-04-23T06:45:45.982Z,41.09
2019-04-23T06:48:28.918Z,42.12
2019-04-23T06:50:58.820Z,42.33
2019-04-23T06:53:23.958Z,43.04
2019-04-23T06:56:08.854Z,42.11
2019-04-23T06:58:39.773Z,40.88
2019-04-23T07:01:07.624Z,41.26
2019-04-23T07:09:09.918Z,43.32
2019-04-23T07:16:34.722Z,41.31
2019-04-23T07:18:54.595Z,40.78
2019-04-23T07:21:27.955Z,40.52
2019-04-23T07:29:11.015Z,39.08
2019-04-23T07:34:20.413Z,39.18
2019-04-23T07:36:45.843Z,39.10
2019-04-23T07:39:23.030Z,38.81
2019-04-23T07:45:02.012Z,38.67
2019-04-23T07:48:01.859Z,39.39
2019-04-23T07:50:38.164Z,39.94
2019-04-23T07:55:34.396Z,38.18
2019-04-23T07:58:06.513Z,39.90
2019-04-23T08:00:44.364Z,38.28
2019-04-23T08:03:17.636Z,37.75
2019-04-23T08:05:39.582Z,38.89
2019-04-23T08:08:11.758Z,38.03
2019-04-23T08:11:23.441Z,37.63
2019-04-23T08:16:18.035Z,39.16
2019-04-23T08:18:52.681Z,38.27
2019-04-23T08:21:14.862Z,37.93
2019-04-23T08:30:24.064Z,38.02
2019-04-23T08:32:06.938Z,38.07
2019-04-23T08:39:43.565Z,35.72
2019-04-23T08:42:36.671Z,35.57
2019-04-23T08:45:07.117Z,36.33
2019-04-23T08:49:56.720Z,36.66
2019-04-23T08:52:37.654Z,35.69
2019-04-23T08:55:08.327Z,36.24
2019-04-23T08:57:39.775Z,36.01
2019-04-23T09:00:17.676Z,36.21
2019-04-23T09:02:56.701Z,35.55
2019-04-23T09:05:23.533Z,36.36
2019-04-23T09:07:59.987Z,34.81
2019-04-23T09:10:29.965Z,35.08
2019-04-23T09:13:09.147Z,35.17
2019-04-23T09:18:06.406Z,36.27
2019-04-23T09:20:32.779Z,35.04
2019-04-23T09:23:01.940Z,35.12
2019-04-23T09:28:21.123Z,36.86
2019-04-23T09:30:49.560Z,37.35
2019-04-23T09:33:49.794Z,37.94
2019-04-23T09:39:10.086Z,39.35
2019-04-23T09:41:43.575Z,41.04
2019-04-23T09:44:57.107Z,40.99
2019-04-23T09:49:46.540Z,39.95
2019-04-23T09:52:20.147Z,37.33
2019-04-23T09:55:02.104Z,37.01
2019-04-23T09:57:26.506Z,36.57
2019-04-23T10:00:01.673Z,36.06
2019-04-23T10:02:23.704Z,34.67
2019-04-23T10:04:51.989Z,34.28
2019-04-23T10:07:21.199Z,34.20
2019-04-23T10:09:42.383Z,35.55
2019-04-23T10:12:14.650Z,36.16
2019-04-23T10:14:56.702Z,36.03
2019-04-23T10:17:19.919Z,37.93
2019-04-23T10:19:50.932Z,36.67
2019-04-23T10:22:22.956Z,35.12
2019-04-23T10:24:55.283Z,35.32
2019-04-23T10:27:27.302Z,36.94
2019-04-23T10:29:59.496Z,37.05
2019-04-23T10:32:31.772Z,37.51
2019-04-23T10:35:14.783Z,39.06
2019-04-23T10:37:46.088Z,41.20
2019-04-23T10:40:14.275Z,40.51
2019-04-23T10:42:44.015Z,42.39
2019-04-23T10:45:48.397Z,42.57
2019-04-23T10:48:49.955Z,42.79
2019-04-23T10:51:37.008Z,43.34
2019-04-23T10:54:15.819Z,43.37
2019-04-23T10:56:40.823Z,42.17
2019-04-23T10:59:15.044Z,43.36
2019-04-23T11:01:45.509Z,42.68
2019-04-23T11:04:34.067Z,41.92
2019-04-23T11:09:34.806Z,43.63
2019-04-23T11:12:12.787Z,44.24
2019-04-23T11:14:42.158Z,43.92
2019-04-23T11:19:54.492Z,43.14
2019-04-23T11:22:36.198Z,43.22
2019-04-23T11:24:48.392Z,43.17
2019-04-23T11:27:22.181Z,43.83
2019-04-23T11:30:04.015Z,44.33
2019-04-23T11:35:14.322Z,44.48
2019-04-23T11:37:40.953Z,42.74
2019-04-23T11:40:13.769Z,44.43
2019-04-23T11:42:38.214Z,44.04
2019-04-23T11:45:14.489Z,42.67
2019-04-23T11:48:13.965Z,42.54
2019-04-23T11:50:24.286Z,42.58
2019-04-23T11:52:51.739Z,43.01
2019-04-23T11:58:00.771Z,42.79
2019-04-23T12:00:26.467Z,44.59
2019-04-23T12:03:04.173Z,40.81
2019-04-23T12:08:56.705Z,41.28
2019-04-23T12:12:31.191Z,41.99
2019-04-23T12:14:30.535Z,41.79
2019-04-23T12:19:53.029Z,41.55
2019-04-23T12:22:07.825Z,40.44
2019-04-23T12:27:17.068Z,40.11
2019-04-23T12:29:50.649Z,40.96
2019-04-23T12:35:04.386Z,41.42
2019-04-23T12:45:27.127Z,39.44
2019-04-23T12:47:59.883Z,39.56
2019-04-23T12:58:01.174Z,39.66
2019-04-23T13:00:47.805Z,40.81
2019-04-23T13:03:18.289Z,41.53
2019-04-23T13:05:34.045Z,42.17
2019-04-23T13:10:47.978Z,42.12
2019-04-23T13:13:40.652Z,43.15
2019-04-23T13:16:12.749Z,43.58
2019-04-23T13:20:58.585Z,41.99
2019-04-23T13:23:32.723Z,42.72
2019-04-23T13:26:18.420Z,43.00
2019-04-23T13:28:37.549Z,43.61
2019-04-23T13:31:10.640Z,44.02
2019-04-23T13:33:58.467Z,44.49
2019-04-23T13:38:48.796Z,45.27
2019-04-23T13:41:20.392Z,44.97
2019-04-23T13:44:09.537Z,43.93
2019-04-23T13:46:32.460Z,44.87
2019-04-23T13:49:00.578Z,45.00
2019-04-23T13:51:39.379Z,46.13
2019-04-23T13:54:46.806Z,46.48
2019-04-23T13:57:12.916Z,46.20
2019-04-23T13:59:22.542Z,46.30
2019-04-23T14:01:48.051Z,45.89
2019-04-23T14:07:25.178Z,45.79
2019-04-23T14:09:54.914Z,45.54
2019-04-23T14:12:22.329Z,44.67
2019-04-23T14:15:14.911Z,44.88
2019-04-23T14:17:37.980Z,44.31
2019-04-23T14:20:05.713Z,44.83
2019-04-23T14:23:04.588Z,45.12
2019-04-23T14:25:08.346Z,46.10
2019-04-23T14:28:05.817Z,45.26
2019-04-23T14:32:45.725Z,46.57
2019-04-23T14:35:28.444Z,45.89
2019-04-23T14:38:04.984Z,46.99
2019-04-23T14:40:29.804Z,46.43
2019-04-23T14:43:03.425Z,47.00
2019-04-23T14:46:12.093Z,47.10
2019-04-23T14:48:08.361Z,46.61
2019-04-23T14:53:18.507Z,47.41
2019-04-23T14:58:20.708Z,47.66
2019-04-23T15:01:14.116Z,50.17
2019-04-23T15:03:32.444Z,55.43
2019-04-23T15:08:40.330Z,55.56
2019-04-23T15:11:19.269Z,56.30
2019-04-23T15:13:44.645Z,56.60
2019-04-23T15:16:17.017Z,55.34
2019-04-23T15:19:25.686Z,56.49
2019-04-23T15:27:45.667Z,51.98
2019-04-23T15:29:01.422Z,51.98
2019-04-23T15:34:30.461Z,52.61
2019-04-23T15:37:15.519Z,52.42
2019-04-23T15:42:08.093Z,52.56
2019-04-23T15:44:16.172Z,53.24
2019-04-23T15:49:37.567Z,53.61
2019-04-23T15:54:42.954Z,53.66
2019-04-23T15:57:45.203Z,54.04
2019-04-23T15:59:53.165Z,53.90
2019-04-23T16:01:50.580Z,54.35
2019-04-23T16:04:21.401Z,52.96
2019-04-23T16:06:52.202Z,52.41
2019-04-23T16:10:00.025Z,52.80
2019-04-23T16:12:17.776Z,52.27
2019-04-23T16:15:03.044Z,50.86
2019-04-23T16:22:38.206Z,46.69
2019-04-23T16:27:44.274Z,46.78
2019-04-23T16:36:05.955Z,47.15
2019-04-23T16:38:38.728Z,47.05
2019-04-23T16:41:07.915Z,47.12
2019-04-23T16:43:40.397Z,47.11
2019-04-23T16:46:11.882Z,47.25
2019-04-23T16:54:10.020Z,46.94
2019-04-23T16:57:01.246Z,46.76
2019-04-23T17:02:02.064Z,46.93
2019-04-23T17:09:48.119Z,47.16
2019-04-23T17:12:10.477Z,47.09
2019-04-23T17:14:41.442Z,47.53
2019-04-23T17:17:23.005Z,47.91
2019-04-23T17:20:06.485Z,48.14
2019-04-23T17:22:35.304Z,48.30
2019-04-23T17:25:15.962Z,48.78
2019-04-23T17:27:48.930Z,48.69
2019-04-23T17:30:22.182Z,49.22
2019-04-23T17:33:07.889Z,48.99
2019-04-23T17:36:02.770Z,49.07
2019-04-23T17:38:23.289Z,49.53
2019-04-23T17:41:07.354Z,49.68
2019-04-23T17:43:44.374Z,49.84
2019-04-23T17:46:14.362Z,49.90
2019-04-23T17:49:01.891Z,50.83
2019-04-23T17:51:44.802Z,50.93
2019-04-23T17:54:06.486Z,50.96
2019-04-23T17:59:18.033Z,51.03
2019-04-23T18:02:16.438Z,51.64
2019-04-23T18:04:33.010Z,51.65
2019-04-23T18:07:05.671Z,51.31
2019-04-23T18:09:51.692Z,51.35
2019-04-23T18:12:22.631Z,51.48
2019-04-23T18:14:50.870Z,51.98
2019-04-23T18:17:35.563Z,51.38
2019-04-23T18:20:12.447Z,51.61
2019-04-23T18:22:47.033Z,51.83
2019-04-23T18:25:23.965Z,51.56
2019-04-23T18:28:16.264Z,51.72
2019-04-23T18:31:01.460Z,50.70
2019-04-23T18:33:54.351Z,50.67
2019-04-23T18:36:08.210Z,50.98
2019-04-23T18:41:26.133Z,51.37
2019-04-23T18:44:02.911Z,51.49
2019-04-23T18:46:43.787Z,51.91
2019-04-23T18:49:22.267Z,51.55
2019-04-23T18:51:58.081Z,51.60
2019-04-23T18:54:34.716Z,50.98
2019-04-23T19:02:49.437Z,51.71
2019-04-23T19:05:32.760Z,51.56
2019-04-23T19:11:13.657Z,50.59
2019-04-23T19:13:50.875Z,50.81
2019-04-23T19:16:28.011Z,51.23
2019-04-23T19:19:04.504Z,50.93
2019-04-23T19:22:07.064Z,49.78
2019-04-23T19:24:22.900Z,50.13
2019-04-23T19:27:10.685Z,49.60
2019-04-23T19:29:46.280Z,49.76
2019-04-23T19:32:06.736Z,50.21
2019-04-23T19:34:43.830Z,50.45
2019-04-23T19:37:23.160Z,50.83
2019-04-23T19:39:53.395Z,50.60
2019-04-23T19:42:44.723Z,51.18
2019-04-23T19:45:15.990Z,51.33
2019-04-23T19:47:55.893Z,51.31
2019-04-23T19:50:23.949Z,51.83
2019-04-23T19:55:35.197Z,52.70
2019-04-23T20:01:03.727Z,53.16
2019-04-23T20:03:28.257Z,53.46
2019-04-23T20:06:06.005Z,53.95
2019-04-23T20:09:12.509Z,54.78
2019-04-23T20:11:13.525Z,55.53
2019-04-23T20:16:46.553Z,57.47
2019-04-23T20:18:54.803Z,58.14
2019-04-23T20:21:38.912Z,58.91
2019-04-23T20:24:21.482Z,59.79
2019-04-23T20:26:45.904Z,60.24
2019-04-23T20:40:31.505Z,63.51
2019-04-23T20:48:32.145Z,66.28
2019-04-23T20:50:44.562Z,66.87
2019-04-23T20:53:19.475Z,67.12
2019-04-23T20:58:47.661Z,68.05
2019-04-23T21:01:18.645Z,67.59
2019-04-23T21:03:46.977Z,67.79
2019-04-23T21:06:30.525Z,68.40
2019-04-23T21:11:14.483Z,68.67
2019-04-23T21:16:26.791Z,69.58
2019-04-23T21:19:10.599Z,69.66
2019-04-23T21:21:35.431Z,69.71
2019-04-23T21:24:00.048Z,70.42
2019-04-23T21:26:37.236Z,70.30
2019-04-23T21:28:59.148Z,70.31
2019-04-23T21:36:49.430Z,71.52
2019-04-23T21:40:00.992Z,71.88
2019-04-23T21:42:21.205Z,72.44
2019-04-23T21:44:57.968Z,73.36
2019-04-23T21:47:25.536Z,73.56
2019-04-23T21:50:19.159Z,73.25
2019-04-23T21:52:34.803Z,72.62
2019-04-23T21:55:02.542Z,73.31
2019-04-23T21:57:44.301Z,73.91
2019-04-23T22:00:08.663Z,73.82
2019-04-23T22:02:49.044Z,74.79
2019-04-23T22:05:19.436Z,75.68
2019-04-23T22:08:02.507Z,75.25
2019-04-23T22:15:34.162Z,77.01
2019-04-23T22:17:59.369Z,77.13
2019-04-23T22:20:34.700Z,77.14
2019-04-23T22:23:12.880Z,76.64
2019-04-23T22:25:52.656Z,77.07
2019-04-23T22:28:10.292Z,77.44
2019-04-23T22:30:55.012Z,77.21
2019-04-23T22:33:19.621Z,76.79
2019-04-23T22:35:55.581Z,76.65
2019-04-23T22:38:30.086Z,75.59
2019-04-23T22:41:01.825Z,75.62
2019-04-23T22:43:40.100Z,75.31
2019-04-23T22:49:09.170Z,74.86
2019-04-23T22:51:29.065Z,75.17
2019-04-23T22:54:05.433Z,74.61
2019-04-23T22:56:35.522Z,74.46
2019-04-23T23:04:18.581Z,73.42
2019-04-23T23:06:57.209Z,73.29
2019-04-23T23:09:25.814Z,73.38
2019-04-23T23:11:54.098Z,73.32
2019-04-23T23:14:24.320Z,73.07
2019-04-23T23:16:56.617Z,72.98
2019-04-23T23:19:29.583Z,72.83
2019-04-23T23:22:03.335Z,72.17
2019-04-23T23:24:27.767Z,71.91
2019-04-23T23:27:15.202Z,72.10
2019-04-23T23:29:41.942Z,72.12
2019-04-23T23:32:14.596Z,71.72
2019-04-23T23:35:04.346Z,71.45
2019-04-23T23:37:15.547Z,71.00
2019-04-23T23:39:58.501Z,70.92
2019-04-23T23:42:15.505Z,70.79
2019-04-23T23:45:03.411Z,70.54
2019-04-23T23:47:30.124Z,70.43
2019-04-23T23:50:00.941Z,70.40
2019-04-23T23:52:35.106Z,70.06
2019-04-23T23:55:07.725Z,70.40
2019-04-23T23:57:34.538Z,70.04
